Time;durP1;ratioP1;P1;durP2;ratioP2;P2;SDS_P1;SDS_P2;PMS_P1;PMS_P2;Temp;Humidity;BMP_temperature;BMP_pressure;BME280_temperature;BME280_humidity;BME280_pressure;Samples;Min_cycle;Max_cycle;Signal;HPM_P1;HPM_P2
2024/01/24 00:02:22;;;;;;;23.30;4.28;;;10.50;99.90;;;;;;6338705;22;20094;-86
2024/01/24 00:04:48;;;;;;;30.05;5.43;;;10.50;99.90;;;;;;6338723;22;19999;-87
2024/01/24 00:07:14;;;;;;;33.25;5.78;;;10.50;99.90;;;;;;6338796;22;20425;-87
2024/01/24 00:09:40;;;;;;;35.40;4.53;;;10.50;99.90;;;;;;6338731;22;20501;-87
2024/01/24 00:12:06;;;;;;;34.13;4.28;;;10.40;99.90;;;;;;6338721;22;20030;-87
2024/01/24 00:14:32;;;;;;;25.00;4.63;;;10.40;99.90;;;;;;6338603;22;20129;-87
2024/01/24 00:16:58;;;;;;;16.60;4.18;;;10.40;99.90;;;;;;6339415;22;20006;-87
2024/01/24 00:19:23;;;;;;;19.08;3.60;;;10.40;99.90;;;;;;6338764;22;20082;-87
2024/01/24 00:21:49;;;;;;;27.90;3.28;;;10.30;99.90;;;;;;6338688;22;20323;-87
2024/01/24 00:24:15;;;;;;;18.60;3.65;;;10.30;99.90;;;;;;6338887;22;20422;-87
2024/01/24 00:26:41;;;;;;;16.50;4.32;;;10.30;99.90;;;;;;6338839;22;20007;-86
2024/01/24 00:29:07;;;;;;;27.90;4.93;;;10.30;99.90;;;;;;6338771;22;20006;-85
2024/01/24 00:31:33;;;;;;;18.38;2.97;;;10.30;99.90;;;;;;6338570;22;20342;-87
2024/01/24 00:33:59;;;;;;;28.90;4.53;;;10.20;99.90;;;;;;6338571;22;19999;-87
2024/01/24 00:36:25;;;;;;;37.63;5.22;;;10.20;99.90;;;;;;6338481;22;20014;-87
2024/01/24 00:38:51;;;;;;;30.52;4.75;;;10.20;99.90;;;;;;6338448;22;20032;-86
2024/01/24 00:41:17;;;;;;;34.08;5.90;;;10.10;99.90;;;;;;6338461;22;20007;-85
2024/01/24 00:43:42;;;;;;;30.13;4.32;;;10.10;99.90;;;;;;6339461;22;20021;-87
2024/01/24 00:46:09;;;;;;;31.00;5.75;;;10.00;99.90;;;;;;6338359;22;19999;-85
2024/01/24 00:48:35;;;;;;;49.50;7.90;;;10.10;99.90;;;;;;6338448;22;20437;-88
2024/01/24 00:51:01;;;;;;;30.02;4.45;;;10.10;99.90;;;;;;6338106;22;19998;-86
2024/01/24 00:53:29;;;;;;;42.30;6.25;;;10.10;99.90;;;;;;6338696;22;20003;-87
2024/01/24 00:55:58;;;;;;;25.92;4.82;;;10.10;99.90;;;;;;6340989;22;20006;-88
2024/01/24 00:58:24;;;;;;;43.72;6.47;;;10.10;99.90;;;;;;6344244;22;20042;-86
2024/01/24 01:00:50;;;;;;;42.55;5.90;;;10.10;99.90;;;;;;6343690;22;20345;-87
2024/01/24 01:03:16;;;;;;;29.13;5.07;;;10.10;99.90;;;;;;6343528;22;19999;-87
2024/01/24 01:05:42;;;;;;;30.98;4.70;;;10.00;99.90;;;;;;6343466;22;20006;-86
2024/01/24 01:08:07;;;;;;;24.30;4.15;;;10.00;99.90;;;;;;6343270;22;20360;-88
2024/01/24 01:10:33;;;;;;;28.90;4.10;;;10.00;99.90;;;;;;6343756;22;20297;-87
2024/01/24 01:12:59;;;;;;;43.88;7.28;;;9.90;99.90;;;;;;6343162;22;20010;-87
2024/01/24 01:15:25;;;;;;;30.38;4.40;;;9.90;99.90;;;;;;6343392;22;20077;-87
2024/01/24 01:17:51;;;;;;;31.90;4.82;;;9.80;99.90;;;;;;6343355;22;20085;-87
2024/01/24 01:20:20;;;;;;;37.17;4.88;;;9.80;99.90;;;;;;6343289;22;20336;-87
2024/01/24 01:22:48;;;;;;;22.77;3.25;;;9.80;99.90;;;;;;6342973;22;20010;-87
2024/01/24 01:25:14;;;;;;;50.17;5.72;;;9.80;99.90;;;;;;6372160;22;20063;-88
2024/01/24 01:27:40;;;;;;;29.77;4.65;;;9.80;99.90;;;;;;6343312;22;20405;-87
2024/01/24 01:30:07;;;;;;;39.58;5.78;;;9.80;99.90;;;;;;6343401;22;20425;-86
2024/01/24 01:32:32;;;;;;;44.20;5.80;;;9.80;99.90;;;;;;6371153;22;20073;-86
2024/01/24 01:34:59;;;;;;;19.42;4.05;;;9.80;99.90;;;;;;6343266;22;20033;-85
2024/01/24 01:37:25;;;;;;;30.55;5.05;;;9.80;99.90;;;;;;6343528;22;20006;-86
2024/01/24 01:39:51;;;;;;;29.67;4.85;;;9.70;99.90;;;;;;6371440;22;20306;-85
2024/01/24 01:42:17;;;;;;;35.25;4.97;;;9.70;99.90;;;;;;6343071;22;20021;-86
2024/01/24 01:44:46;;;;;;;28.90;4.65;;;9.70;99.90;;;;;;6343181;22;20007;-86
2024/01/24 01:47:16;;;;;;;21.60;3.70;;;9.70;99.90;;;;;;6343175;22;20009;-85
2024/01/24 01:49:45;;;;;;;39.30;5.30;;;9.70;99.90;;;;;;6343146;22;20009;-87
2024/01/24 01:52:12;;;;;;;28.77;4.95;;;9.70;99.90;;;;;;6343059;22;20010;-86
2024/01/24 01:54:40;;;;;;;31.55;4.88;;;9.70;99.90;;;;;;6343085;22;20005;-86
2024/01/24 01:57:08;;;;;;;18.90;3.80;;;9.70;99.90;;;;;;6342775;22;20098;-87
2024/01/24 01:59:35;;;;;;;22.95;3.83;;;9.70;99.90;;;;;;6342918;22;20006;-86
2024/01/24 02:02:02;;;;;;;23.55;3.55;;;9.70;99.90;;;;;;6342869;22;20018;-86
2024/01/24 02:04:28;;;;;;;29.70;4.20;;;9.60;99.90;;;;;;6342638;22;19998;-86
2024/01/24 02:06:58;;;;;;;23.67;3.58;;;9.70;99.90;;;;;;6343032;22;20010;-88
2024/01/24 02:09:24;;;;;;;28.50;4.55;;;9.60;99.90;;;;;;6317142;22;20341;-86
2024/01/24 02:11:50;;;;;;;22.25;3.30;;;9.60;99.90;;;;;;6343064;22;19998;-85
2024/01/24 02:14:15;;;;;;;27.33;5.20;;;9.60;99.90;;;;;;6370600;22;20006;-87
2024/01/24 02:16:41;;;;;;;26.40;4.35;;;9.60;99.90;;;;;;6342976;22;19998;-87
2024/01/24 02:19:07;;;;;;;22.33;3.80;;;9.60;99.90;;;;;;6343038;22;20052;-85
2024/01/24 02:21:33;;;;;;;20.23;3.78;;;9.60;99.90;;;;;;6342799;22;20044;-86
2024/01/24 02:24:00;;;;;;;19.25;4.68;;;9.60;99.90;;;;;;6342954;22;20003;-86
2024/01/24 02:26:26;;;;;;;25.17;3.67;;;9.60;99.90;;;;;;6342903;22;20007;-87
2024/01/24 02:28:52;;;;;;;19.88;3.22;;;9.60;99.90;;;;;;6343010;22;20002;-85
2024/01/24 02:31:19;;;;;;;28.30;4.25;;;9.60;99.90;;;;;;6342749;22;20006;-86
2024/01/24 02:33:44;;;;;;;36.33;5.03;;;9.60;99.90;;;;;;6342857;22;20005;-86
2024/01/24 02:36:12;;;;;;;25.15;4.03;;;9.50;99.90;;;;;;6342800;22;20010;-86
2024/01/24 02:38:38;;;;;;;30.75;3.92;;;9.50;99.90;;;;;;6342728;22;20041;-87
2024/01/24 02:41:03;;;;;;;40.75;5.80;;;9.50;99.90;;;;;;6342537;22;20002;-85
2024/01/24 02:43:29;;;;;;;35.53;5.88;;;9.50;99.90;;;;;;6370760;22;20002;-85
2024/01/24 02:45:54;;;;;;;33.13;5.90;;;9.50;99.90;;;;;;6342638;22;19998;-86
2024/01/24 02:48:20;;;;;;;28.38;5.78;;;9.50;99.90;;;;;;6342800;22;20127;-85
2024/01/24 02:50:46;;;;;;;37.33;5.72;;;9.40;99.90;;;;;;6342657;22;20011;-85
2024/01/24 02:53:12;;;;;;;26.60;3.75;;;9.40;99.90;;;;;;6342577;22;20001;-86
2024/01/24 02:55:37;;;;;;;33.70;5.82;;;9.40;99.90;;;;;;6342537;22;20010;-86
2024/01/24 02:58:03;;;;;;;24.67;3.80;;;9.40;99.90;;;;;;6342420;22;20010;-87
2024/01/24 03:00:29;;;;;;;32.00;4.30;;;9.40;99.90;;;;;;6342538;22;20318;-85
2024/01/24 03:02:55;;;;;;;37.58;5.68;;;9.40;99.90;;;;;;6342625;22;20071;-86
2024/01/24 03:05:20;;;;;;;33.42;4.03;;;9.40;99.90;;;;;;6342492;22;20015;-84
2024/01/24 03:07:47;;;;;;;33.95;4.78;;;9.40;99.90;;;;;;6370467;22;20029;-84
2024/01/24 03:10:13;;;;;;;33.80;5.03;;;9.40;99.90;;;;;;6342397;22;20002;-85
2024/01/24 03:12:38;;;;;;;26.02;4.68;;;9.40;99.90;;;;;;6342460;22;20432;-85
2024/01/24 03:15:05;;;;;;;32.17;4.75;;;9.30;99.90;;;;;;6343742;22;20006;-85
2024/01/24 03:17:32;;;;;;;32.40;4.43;;;9.40;99.90;;;;;;6344079;22;20006;-84
2024/01/24 03:19:58;;;;;;;27.85;3.53;;;9.40;99.90;;;;;;6344541;22;20425;-86
2024/01/24 03:22:24;;;;;;;25.65;3.97;;;9.40;99.90;;;;;;6344479;22;20010;-85
2024/01/24 03:24:51;;;;;;;26.13;3.50;;;9.40;99.90;;;;;;6344473;22;20007;-85
2024/01/24 03:27:18;;;;;;;26.00;3.15;;;9.40;99.90;;;;;;6372721;22;20073;-85
2024/01/24 03:29:44;;;;;;;27.52;3.50;;;9.40;99.90;;;;;;6344347;22;20441;-85
2024/01/24 03:32:10;;;;;;;20.73;3.20;;;9.40;99.90;;;;;;6344361;22;20077;-86
2024/01/24 03:34:35;;;;;;;18.02;3.10;;;9.30;99.90;;;;;;6344401;22;20107;-87
2024/01/24 03:37:01;;;;;;;28.90;4.82;;;9.40;99.90;;;;;;6344297;22;20002;-86
2024/01/24 03:39:28;;;;;;;29.98;3.30;;;9.40;99.90;;;;;;6344014;22;20486;-86
2024/01/24 03:41:53;;;;;;;28.75;3.85;;;9.40;99.90;;;;;;6343960;22;20059;-87
2024/01/24 03:44:19;;;;;;;15.77;2.47;;;9.40;99.90;;;;;;6372238;22;20002;-87
2024/01/24 03:46:45;;;;;;;25.38;4.30;;;9.40;99.90;;;;;;6344101;22;20018;-86
2024/01/24 03:49:11;;;;;;;28.67;5.20;;;9.40;99.90;;;;;;6344099;22;20014;-85
2024/01/24 03:51:37;;;;;;;12.63;2.50;;;9.50;99.90;;;;;;6344104;22;20013;-86
2024/01/24 03:54:02;;;;;;;25.52;5.18;;;9.50;99.90;;;;;;6344046;22;20324;-87
2024/01/24 03:56:28;;;;;;;24.85;3.35;;;9.50;99.90;;;;;;6372074;22;20367;-85
2024/01/24 03:58:54;;;;;;;18.52;2.97;;;9.50;99.90;;;;;;6345039;22;20002;-85
2024/01/24 04:01:20;;;;;;;20.17;3.38;;;9.50;99.90;;;;;;6370850;22;20577;-86
2024/01/24 04:03:46;;;;;;;15.57;2.75;;;9.50;99.90;;;;;;6344610;22;20013;-86
2024/01/24 04:06:11;;;;;;;25.00;3.40;;;9.50;99.90;;;;;;6371842;22;20315;-87
2024/01/24 04:08:37;;;;;;;38.95;5.13;;;9.60;99.90;;;;;;6343875;22;20007;-86
2024/01/24 04:11:03;;;;;;;21.50;2.97;;;9.50;99.90;;;;;;6373087;22;20003;-85
2024/01/24 04:13:28;;;;;;;24.02;3.53;;;9.50;99.90;;;;;;6345250;22;20366;-86
2024/01/24 04:15:54;;;;;;;21.52;3.58;;;9.50;99.90;;;;;;6345201;22;20497;-85
2024/01/24 04:18:20;;;;;;;10.65;2.40;;;9.50;99.90;;;;;;6345120;22;20029;-86
2024/01/24 04:20:45;;;;;;;16.63;2.25;;;9.50;99.90;;;;;;6344222;22;20311;-86
2024/01/24 04:23:11;;;;;;;21.52;4.32;;;9.50;99.90;;;;;;6344336;22;20341;-86
2024/01/24 04:25:37;;;;;;;17.92;2.78;;;9.50;99.90;;;;;;6343355;22;20063;-86
2024/01/24 04:28:02;;;;;;;13.10;2.42;;;9.50;99.90;;;;;;6344074;22;20014;-85
2024/01/24 04:30:28;;;;;;;14.88;2.17;;;9.50;99.90;;;;;;6371876;22;20033;-86
2024/01/24 04:32:54;;;;;;;19.27;3.25;;;9.50;99.90;;;;;;6343788;22;20059;-87
2024/01/24 04:35:20;;;;;;;17.85;2.70;;;9.50;99.90;;;;;;6343597;22;20124;-86
2024/01/24 04:37:45;;;;;;;19.15;3.17;;;9.40;99.90;;;;;;6343633;22;20006;-86
2024/01/24 04:40:12;;;;;;;25.35;4.18;;;9.40;99.90;;;;;;6343729;22;20085;-85
2024/01/24 04:42:38;;;;;;;14.13;2.92;;;9.40;99.90;;;;;;6343450;22;20047;-86
2024/01/24 04:45:04;;;;;;;25.50;3.88;;;9.40;99.90;;;;;;6317625;22;20003;-85
2024/01/24 04:47:30;;;;;;;31.80;5.22;;;9.40;99.90;;;;;;6343450;22;20077;-86
2024/01/24 04:49:56;;;;;;;22.10;3.78;;;9.40;99.90;;;;;;6343439;22;20025;-86
2024/01/24 04:52:22;;;;;;;20.42;3.25;;;9.40;99.90;;;;;;6343297;22;20006;-86
2024/01/24 04:54:51;;;;;;;27.42;3.97;;;9.40;99.90;;;;;;6371320;22;20006;-86
2024/01/24 04:57:17;;;;;;;19.55;2.83;;;9.30;99.90;;;;;;6371266;22;20020;-85
2024/01/24 04:59:43;;;;;;;27.15;4.35;;;9.30;99.90;;;;;;6343426;22;19998;-86
2024/01/24 05:02:09;;;;;;;24.45;3.78;;;9.30;99.90;;;;;;6343254;22;20475;-87
2024/01/24 05:04:35;;;;;;;26.38;3.40;;;9.30;99.90;;;;;;6343292;22;19999;-86
2024/01/24 05:07:00;;;;;;;16.13;2.92;;;9.30;99.90;;;;;;6343461;22;20013;-86
2024/01/24 05:09:26;;;;;;;24.73;3.65;;;9.30;99.90;;;;;;6343226;22;20037;-86
2024/01/24 05:11:52;;;;;;;23.17;2.78;;;9.30;99.90;;;;;;6343429;22;20003;-86
2024/01/24 05:14:17;;;;;;;21.80;3.45;;;9.30;99.90;;;;;;6343156;22;20010;-86
2024/01/24 05:16:43;;;;;;;19.92;3.40;;;9.30;99.90;;;;;;6343350;22;20025;-86
2024/01/24 05:19:09;;;;;;;21.40;2.90;;;9.30;99.90;;;;;;6343141;22;20009;-86
2024/01/24 05:21:42;;;;;;;15.93;3.08;;;9.30;99.90;;;;;;6343208;22;20330;-87
2024/01/24 05:24:09;;;;;;;20.42;3.20;;;9.30;99.90;;;;;;6344372;22;20029;-86
2024/01/24 05:26:35;;;;;;;26.20;3.63;;;9.30;99.90;;;;;;6371150;22;20005;-85
2024/01/24 05:29:02;;;;;;;19.77;3.10;;;9.20;99.90;;;;;;6343177;22;20341;-86
2024/01/24 05:31:28;;;;;;;27.00;4.30;;;9.20;99.90;;;;;;6343262;22;20010;-86
2024/01/24 05:33:55;;;;;;;27.02;3.90;;;9.20;99.90;;;;;;6342966;22;20448;-85
2024/01/24 05:36:22;;;;;;;20.27;4.07;;;9.20;99.90;;;;;;6343047;22;20020;-85
2024/01/24 05:38:48;;;;;;;27.95;3.20;;;9.20;99.90;;;;;;6370298;22;20115;-85
2024/01/24 05:41:14;;;;;;;18.52;3.03;;;9.20;99.90;;;;;;6342867;22;20408;-86
2024/01/24 05:43:39;;;;;;;25.70;3.88;;;9.20;99.90;;;;;;6370992;22;20120;-85
2024/01/24 05:46:05;;;;;;;19.67;3.33;;;9.20;99.90;;;;;;6371047;22;20006;-85
2024/01/24 05:48:31;;;;;;;21.67;3.85;;;9.10;99.90;;;;;;6343178;22;20006;-85
2024/01/24 05:50:56;;;;;;;25.17;4.28;;;9.10;99.90;;;;;;6343391;22;20026;-86
2024/01/24 05:53:23;;;;;;;24.83;3.67;;;9.10;99.90;;;;;;6343217;22;20085;-86
2024/01/24 05:55:48;;;;;;;24.70;4.45;;;9.10;99.90;;;;;;6343040;22;20011;-85
2024/01/24 05:58:14;;;;;;;19.90;3.38;;;9.10;99.90;;;;;;6342943;22;20086;-85
2024/01/24 06:00:39;;;;;;;28.67;4.07;;;9.10;99.90;;;;;;6342998;22;20007;-85
2024/01/24 06:03:05;;;;;;;27.85;3.05;;;9.00;99.90;;;;;;6343051;22;20018;-86
2024/01/24 06:05:31;;;;;;;20.00;2.97;;;9.00;99.90;;;;;;6342879;22;20011;-86
2024/01/24 06:07:56;;;;;;;25.80;3.67;;;9.00;99.90;;;;;;6342921;22;20052;-83
2024/01/24 06:10:22;;;;;;;35.90;4.40;;;9.00;99.90;;;;;;6342959;22;20043;-84
2024/01/24 06:12:48;;;;;;;25.13;3.50;;;9.00;99.90;;;;;;6342878;22;20418;-83
2024/01/24 06:15:13;;;;;;;33.33;4.15;;;9.00;99.90;;;;;;6342925;22;19998;-87
2024/01/24 06:17:39;;;;;;;29.70;3.40;;;9.00;99.90;;;;;;6342880;22;20006;-87
2024/01/24 06:20:06;;;;;;;27.30;4.00;;;8.90;99.90;;;;;;6343001;22;20002;-86
2024/01/24 06:22:31;;;;;;;33.90;4.13;;;8.90;99.90;;;;;;6344901;22;20105;-87
2024/01/24 06:24:57;;;;;;;28.33;5.47;;;8.90;99.90;;;;;;6373584;22;20433;-84
2024/01/24 06:27:23;;;;;;;25.98;5.70;;;8.90;99.90;;;;;;6345376;22;20002;-88
2024/01/24 06:29:51;;;;;;;16.67;3.58;;;8.80;99.90;;;;;;6345302;22;20006;-85
2024/01/24 06:32:16;;;;;;;26.55;4.13;;;8.80;99.90;;;;;;6345006;22;19999;-86
2024/01/24 06:34:42;;;;;;;19.38;2.65;;;8.80;99.90;;;;;;6344561;22;20013;-85
2024/01/24 06:37:08;;;;;;;26.80;4.80;;;8.80;99.90;;;;;;6344408;22;20003;-86
2024/01/24 06:39:34;;;;;;;26.15;3.35;;;8.80;99.90;;;;;;6343821;22;20370;-87
2024/01/24 06:41:59;;;;;;;22.38;3.65;;;8.80;99.90;;;;;;6342969;22;20056;-87
2024/01/24 06:44:26;;;;;;;24.92;3.67;;;8.80;99.90;;;;;;6343225;22;20085;-85
2024/01/24 06:46:51;;;;;;;24.58;4.60;;;8.80;99.90;;;;;;6343358;22;20428;-86
2024/01/24 06:49:17;;;;;;;32.67;4.93;;;8.80;99.90;;;;;;6342343;22;20030;-87
2024/01/24 06:51:43;;;;;;;19.92;3.85;;;8.80;99.90;;;;;;6342606;22;20332;-86
2024/01/24 06:54:09;;;;;;;31.65;4.00;;;8.70;99.90;;;;;;6342648;22;20002;-85
2024/01/24 06:56:35;;;;;;;26.50;5.43;;;8.70;99.90;;;;;;6342813;22;20063;-85
2024/01/24 06:59:02;;;;;;;26.00;3.65;;;8.70;99.90;;;;;;6343147;22;20003;-85
2024/01/24 07:01:28;;;;;;;17.70;2.45;;;8.70;99.90;;;;;;6342715;22;20007;-86
2024/01/24 07:03:53;;;;;;;25.27;4.03;;;8.70;99.90;;;;;;6342829;22;20451;-87
2024/01/24 07:06:19;;;;;;;23.27;3.60;;;8.70;99.90;;;;;;6342693;22;20333;-85
2024/01/24 07:08:45;;;;;;;25.92;3.83;;;8.70;99.90;;;;;;6342435;22;20356;-86
2024/01/24 07:11:11;;;;;;;26.10;3.90;;;8.70;99.90;;;;;;6342481;22;20010;-86
2024/01/24 07:13:37;;;;;;;22.38;3.65;;;8.70;99.90;;;;;;6342678;22;20010;-86
2024/01/24 07:16:04;;;;;;;18.45;3.00;;;8.70;99.90;;;;;;6342829;22;20002;-85
2024/01/24 07:18:33;;;;;;;24.25;3.13;;;8.60;99.90;;;;;;6342634;22;19998;-85
2024/01/24 07:21:00;;;;;;;20.98;2.83;;;8.60;99.90;;;;;;6342437;22;20060;-86
2024/01/24 07:23:26;;;;;;;29.08;4.82;;;8.60;99.90;;;;;;6342474;22;19998;-88
2024/01/24 07:25:52;;;;;;;25.83;4.15;;;8.60;99.90;;;;;;6370208;22;20025;-89
2024/01/24 07:28:18;;;;;;;25.70;3.83;;;8.60;99.90;;;;;;6342651;22;20005;-86
2024/01/24 07:30:44;;;;;;;28.05;3.92;;;8.60;99.90;;;;;;6342540;22;20302;-85
2024/01/24 07:33:10;;;;;;;32.70;3.63;;;8.60;99.90;;;;;;6342459;22;20002;-85
2024/01/24 07:35:36;;;;;;;27.02;4.18;;;8.60;99.90;;;;;;6343078;22;20009;-86
2024/01/24 07:38:01;;;;;;;19.05;2.80;;;8.60;99.90;;;;;;6342275;22;20433;-87
2024/01/24 07:40:27;;;;;;;22.85;3.97;;;8.60;99.90;;;;;;6342225;22;20287;-87
2024/01/24 07:42:53;;;;;;;33.92;4.82;;;8.60;99.90;;;;;;6342482;22;20014;-86
2024/01/24 07:45:19;;;;;;;26.65;4.60;;;8.60;99.90;;;;;;6342593;22;19998;-86
2024/01/24 07:47:45;;;;;;;33.28;4.80;;;8.60;99.90;;;;;;6342383;22;20055;-86
2024/01/24 07:50:13;;;;;;;24.80;3.90;;;8.60;99.90;;;;;;6342219;22;20006;-86
2024/01/24 07:52:39;;;;;;;18.88;3.03;;;8.50;99.90;;;;;;6342360;22;20319;-87
2024/01/24 07:55:05;;;;;;;22.17;3.08;;;8.50;99.90;;;;;;6370515;22;20002;-86
2024/01/24 07:57:31;;;;;;;20.23;3.35;;;8.50;99.90;;;;;;6341928;22;20322;-87
2024/01/24 07:59:57;;;;;;;24.77;4.32;;;8.50;99.90;;;;;;6343281;22;20406;-85
2024/01/24 08:02:23;;;;;;;18.95;2.92;;;8.50;99.90;;;;;;6343545;22;20434;-86
2024/01/24 08:04:48;;;;;;;28.65;4.60;;;8.50;99.90;;;;;;6344413;22;20375;-83
2024/01/24 08:07:14;;;;;;;26.75;3.67;;;8.50;99.90;;;;;;6344096;22;20006;-86
2024/01/24 08:09:40;;;;;;;31.20;3.70;;;8.50;99.90;;;;;;6343585;22;20005;-86
2024/01/24 08:12:06;;;;;;;33.67;3.95;;;8.50;99.90;;;;;;6343868;22;20041;-86
2024/01/24 08:14:31;;;;;;;28.10;4.32;;;8.60;99.90;;;;;;6343832;22;20009;-86
2024/01/24 08:17:10;;;;;;;24.63;4.05;;;8.60;99.90;;;;;;6343947;22;20006;-85
2024/01/24 08:19:36;;;;;;;27.42;4.30;;;8.60;99.90;;;;;;6344180;22;20028;-87
2024/01/24 08:22:03;;;;;;;36.78;8.20;;;8.50;99.90;;;;;;6344181;22;20014;-85
2024/01/24 08:24:29;;;;;;;19.27;2.58;;;8.50;99.90;;;;;;6344933;22;20002;-88
2024/01/24 08:26:55;;;;;;;13.27;2.80;;;8.50;99.90;;;;;;6343925;22;20291;-86
2024/01/24 08:29:21;;;;;;;16.63;4.68;;;8.50;99.90;;;;;;6344207;22;20029;-86
2024/01/24 08:31:46;;;;;;;22.10;4.47;;;8.50;99.90;;;;;;6344452;22;20426;-86
2024/01/24 08:34:12;;;;;;;31.48;3.78;;;8.50;99.90;;;;;;6344436;22;20005;-86
2024/01/24 08:36:39;;;;;;;23.67;4.13;;;8.50;99.90;;;;;;6372456;22;20002;-87
2024/01/24 08:39:06;;;;;;;26.35;3.97;;;8.50;99.90;;;;;;6345081;22;20002;-86
2024/01/24 08:41:32;;;;;;;29.77;4.72;;;8.40;99.90;;;;;;6344848;22;20143;-88
2024/01/24 08:43:58;;;;;;;20.25;3.30;;;8.50;99.90;;;;;;6344818;22;20363;-87
2024/01/24 08:46:24;;;;;;;19.60;3.92;;;8.40;99.90;;;;;;6344318;22;20055;-88
2024/01/24 08:48:50;;;;;;;21.80;3.83;;;8.40;99.90;;;;;;6344177;22;19999;-87
2024/01/24 08:51:16;;;;;;;20.50;3.85;;;8.40;99.90;;;;;;6344351;22;20005;-87
2024/01/24 08:53:42;;;;;;;40.72;4.15;;;8.40;99.90;;;;;;6345955;22;20002;-87
2024/01/24 08:56:09;;;;;;;33.20;3.88;;;8.40;99.90;;;;;;6344398;22;20003;-87
2024/01/24 08:58:37;;;;;;;12.63;2.78;;;8.40;99.90;;;;;;6344134;22;20006;-86
2024/01/24 09:01:03;;;;;;;22.20;3.08;;;8.40;99.90;;;;;;6344825;22;20002;-88
2024/01/24 09:03:28;;;;;;;26.05;3.80;;;8.40;99.90;;;;;;6347617;22;20010;-93
2024/01/24 09:05:54;;;;;;;17.85;3.42;;;8.40;99.90;;;;;;6346446;22;20054;-91
2024/01/24 09:08:20;;;;;;;17.67;2.70;;;8.40;99.90;;;;;;6346018;22;20426;-93
2024/01/24 09:10:46;;;;;;;17.33;2.58;;;8.40;99.90;;;;;;6347177;22;20452;-92
2024/01/24 09:13:12;;;;;;;24.80;3.95;;;8.40;99.90;;;;;;6349694;22;20002;-92
2024/01/24 09:15:38;;;;;;;21.67;3.13;;;8.40;99.90;;;;;;6351587;22;20401;-92
2024/01/24 09:18:06;;;;;;;14.25;2.70;;;8.40;99.90;;;;;;6351282;22;19998;-94
2024/01/24 09:20:32;;;;;;;34.35;3.95;;;8.40;99.90;;;;;;6347085;22;20071;-93
2024/01/24 09:22:58;;;;;;;25.92;3.95;;;8.40;99.90;;;;;;6346056;22;20478;-91
2024/01/24 09:25:26;;;;;;;28.55;3.67;;;8.40;99.90;;;;;;6350616;22;19999;-91
2024/01/24 09:27:53;;;;;;;24.20;3.65;;;8.40;99.90;;;;;;6320729;22;20017;-94
2024/01/24 09:30:20;;;;;;;26.67;4.45;;;8.50;99.90;;;;;;6345794;22;20013;-94
2024/01/24 09:32:46;;;;;;;25.05;4.03;;;8.50;99.90;;;;;;6319021;22;20003;-93
2024/01/24 09:35:12;;;;;;;18.77;3.15;;;8.50;99.90;;;;;;6345605;22;20017;-93
2024/01/24 09:37:39;;;;;;;28.80;4.40;;;8.60;99.90;;;;;;6346051;22;20005;-93
2024/01/24 09:40:06;;;;;;;17.48;3.08;;;8.60;99.90;;;;;;6347820;22;20009;-93
2024/01/24 09:42:37;;;;;;;16.58;2.63;;;8.60;99.90;;;;;;6345806;22;20021;-93
2024/01/24 09:45:02;;;;;;;;;;;8.60;99.90;;;;;;6346250;22;19998;-92
2024/01/24 09:47:28;;;;;;;20.15;2.53;;;8.70;99.90;;;;;;6345826;22;19899;-91
2024/01/24 09:49:54;;;;;;;12.63;3.13;;;8.80;99.90;;;;;;6345871;22;20074;-92
2024/01/24 09:52:24;;;;;;;20.77;2.67;;;8.90;99.90;;;;;;6349867;22;20002;-92
2024/01/24 09:54:57;;;;;;;22.75;2.90;;;8.90;99.90;;;;;;6346399;22;20002;-93
2024/01/24 09:57:24;;;;;;;22.60;3.78;;;8.90;99.90;;;;;;6346351;22;20021;-93
2024/01/24 09:59:51;;;;;;;19.73;3.42;;;9.00;99.90;;;;;;6347090;22;20010;-92
2024/01/24 10:02:17;;;;;;;10.52;2.92;;;9.00;99.90;;;;;;6373312;22;20010;-93
2024/01/24 10:04:44;;;;;;;28.13;3.63;;;9.20;99.90;;;;;;6346006;22;19995;-92
2024/01/24 10:07:10;;;;;;;19.20;3.17;;;9.30;99.90;;;;;;6358189;22;20009;-92
2024/01/24 10:09:37;;;;;;;19.75;3.35;;;9.50;99.90;;;;;;6360200;22;20002;-93
2024/01/24 10:12:04;;;;;;;13.05;2.40;;;9.60;99.90;;;;;;6351485;22;20055;-94
2024/01/24 10:14:30;;;;;;;29.20;3.05;;;9.70;99.90;;;;;;6346549;22;20497;-94
2024/01/24 10:16:57;;;;;;;19.17;3.50;;;9.80;99.90;;;;;;6348169;22;20007;-94
2024/01/24 10:19:24;;;;;;;23.58;3.42;;;9.90;99.90;;;;;;6346976;22;20432;-93
2024/01/24 10:21:51;;;;;;;24.48;4.53;;;9.90;99.90;;;;;;6347565;22;20138;-94
2024/01/24 10:24:21;;;;;;;20.60;3.97;;;10.00;99.90;;;;;;6344493;22;20024;-94
2024/01/24 10:26:46;;;;;;;19.05;3.45;;;10.00;99.90;;;;;;6344897;22;20493;-93
2024/01/24 10:29:14;;;;;;;25.52;3.63;;;9.90;99.90;;;;;;6344607;22;20073;-92
2024/01/24 10:31:41;;;;;;;16.60;3.45;;;9.80;99.90;;;;;;6344482;22;20051;-92
2024/01/24 10:34:07;;;;;;;19.42;4.03;;;9.70;99.90;;;;;;6345935;22;20397;-92
2024/01/24 10:36:35;;;;;;;12.77;2.97;;;9.60;99.90;;;;;;6344208;22;20014;-92
2024/01/24 10:39:05;;;;;;;23.92;3.97;;;9.50;99.90;;;;;;6344841;22;20006;-91
2024/01/24 10:41:37;;;;;;;19.67;3.28;;;9.40;99.90;;;;;;6344632;22;20014;-91
2024/01/24 10:44:10;;;;;;;19.17;3.60;;;9.40;99.90;;;;;;6344696;22;20062;-92
2024/01/24 10:46:40;;;;;;;10.98;2.45;;;9.40;99.90;;;;;;6344087;22;20455;-91
2024/01/24 10:49:08;;;;;;;23.92;3.70;;;9.40;99.90;;;;;;6344446;22;20026;-91
2024/01/24 10:51:34;;;;;;;15.90;3.40;;;9.40;99.90;;;;;;6344439;22;20093;-93
2024/01/24 10:54:02;;;;;;;22.65;3.53;;;9.40;99.90;;;;;;6345506;22;20010;-92
2024/01/24 10:56:47;;;;;;;20.40;3.70;;;9.50;99.90;;;;;;6341158;22;20022;-93
2024/01/24 10:59:13;;;;;;;29.25;3.55;;;9.50;99.90;;;;;;6315277;22;20007;-92
2024/01/24 11:01:39;;;;;;;24.55;2.95;;;9.50;99.90;;;;;;6341038;22;20011;-91
2024/01/24 11:04:19;;;;;;;23.20;3.97;;;9.50;99.90;;;;;;6336908;22;20083;-93
2024/01/24 11:06:55;;;;;;;24.10;4.40;;;9.50;99.90;;;;;;6326362;22;20006;-93
2024/01/24 11:09:45;;;;;;;21.48;4.20;;;9.60;99.90;;;;;;6339708;22;20007;-93
2024/01/24 11:12:12;;;;;;;;;;;9.70;99.90;;;;;;6340290;22;19999;-94
2024/01/24 11:14:45;;;;;;;26.05;4.35;;;9.70;99.90;;;;;;6340293;22;19943;-93
2024/01/24 11:17:10;;;;;;;34.88;5.22;;;9.70;99.90;;;;;;6339948;22;20086;-93
2024/01/24 11:19:36;;;;;;;14.27;2.35;;;9.80;99.90;;;;;;6338743;22;20029;-94
2024/01/24 11:22:11;;;;;;;15.63;3.17;;;9.90;99.90;;;;;;6339408;22;20018;-94
2024/01/24 11:24:43;;;;;;;23.60;4.05;;;10.00;99.90;;;;;;6340729;22;20418;-93
2024/01/24 11:27:35;;;;;;;15.40;2.95;;;10.10;99.90;;;;;;6340822;22;20437;-95
2024/01/24 11:30:17;;;;;;;26.67;4.00;;;10.30;99.90;;;;;;6340973;22;20003;-93
2024/01/24 11:32:54;;;;;;;13.90;2.75;;;10.40;99.90;;;;;;6340208;22;19999;-94
2024/01/24 11:35:42;;;;;;;25.90;3.38;;;10.50;99.90;;;;;;6341095;22;20030;-94
2024/01/24 11:38:16;;;;;;;14.75;3.33;;;10.70;99.90;;;;;;6344174;22;19999;-93
2024/01/24 11:40:47;;;;;;;24.75;4.22;;;10.80;99.50;;;;;;6342040;22;20007;-94
2024/01/24 11:43:32;;;;;;;33.08;4.72;;;10.80;98.90;;;;;;6342226;22;20011;-94
2024/01/24 11:46:05;;;;;;;33.08;4.32;;;10.80;98.90;;;;;;6340573;22;20006;-94
2024/01/24 11:48:32;;;;;;;28.45;3.83;;;11.00;98.60;;;;;;6340661;22;20010;-94
2024/01/24 11:51:04;;;;;;;22.45;3.33;;;11.00;98.10;;;;;;6341509;22;20007;-94
2024/01/24 11:53:30;;;;;;;25.88;3.90;;;11.20;98.00;;;;;;6341092;22;20375;-95
2024/01/24 11:55:58;;;;;;;25.23;3.65;;;11.20;97.50;;;;;;6341754;22;20398;-94
2024/01/24 11:58:28;;;;;;;32.70;4.45;;;11.40;97.40;;;;;;6340358;22;20015;-94
2024/01/24 12:01:05;;;;;;;14.57;3.08;;;11.50;96.60;;;;;;6340859;22;20007;-94
2024/01/24 12:03:32;;;;;;;21.95;4.20;;;11.70;96.30;;;;;;6341854;22;20007;-94
2024/01/24 12:05:59;;;;;;;37.50;4.20;;;11.90;95.30;;;;;;6315217;22;20007;-95
2024/01/24 12:08:26;;;;;;;29.73;4.57;;;12.00;94.80;;;;;;6341214;22;20425;-95
2024/01/24 12:10:53;;;;;;;20.48;3.30;;;12.00;94.80;;;;;;6341214;22;20042;-93
2024/01/24 12:13:22;;;;;;;26.42;4.38;;;12.20;94.60;;;;;;6341078;22;20426;-94
2024/01/24 12:15:54;;;;;;;20.63;4.15;;;12.30;94.20;;;;;;6341219;22;20011;-94
2024/01/24 12:18:20;;;;;;;21.05;3.65;;;12.40;93.20;;;;;;6340270;22;20007;-95
2024/01/24 12:20:53;;;;;;;25.88;4.22;;;12.40;93.00;;;;;;6340934;22;20003;-94
2024/01/24 12:23:19;;;;;;;23.98;4.22;;;12.50;92.70;;;;;;6340854;22;20052;-95
2024/01/24 12:25:46;;;;;;;22.50;4.15;;;12.60;92.40;;;;;;6341655;22;20014;-95
2024/01/24 12:28:12;;;;;;;26.20;4.07;;;12.80;91.60;;;;;;6341040;22;20383;-96
2024/01/24 12:30:38;;;;;;;17.83;3.50;;;12.80;90.60;;;;;;6341056;22;20003;-95
2024/01/24 12:33:05;;;;;;;15.55;3.17;;;12.90;90.20;;;;;;6340203;22;20006;-94
2024/01/24 12:35:32;;;;;;;14.30;2.92;;;12.90;88.80;;;;;;6340486;22;20007;-94
2024/01/24 12:38:01;;;;;;;22.90;3.53;;;13.00;87.90;;;;;;6340706;22;20026;-93
2024/01/24 12:40:31;;;;;;;16.05;3.25;;;13.00;88.30;;;;;;6341660;22;20045;-94
2024/01/24 12:42:59;;;;;;;31.08;3.80;;;13.10;87.60;;;;;;6341312;22;20018;-94
2024/01/24 12:45:26;;;;;;;18.15;3.35;;;13.20;87.10;;;;;;6343586;22;20021;-94